Time,TemperatureF,DewpointF,PressureIn,WindDirection,WindDirectionDegrees,WindSpeedMPH,WindSpeedGustMPH,Humidity,HourlyPrecipIn,Conditions,Clouds,dailyrainin,SolarRadiationWatts/m^2,SoftwareType,DateUTC
2013-03-15 00:02:00,61.0,61.0,-100.00,ESE,122,0.0,3.0,99,0.00,,,0.00,0.000000,,2013-03-15 10:02:00,
2013-03-15 00:12:00,61.0,61.0,-100.00,ESE,122,0.0,3.0,99,0.00,,,0.00,0.000000,,2013-03-15 10:12:00,
2013-03-15 00:23:00,61.0,61.0,-100.00,ESE,122,0.0,3.0,99,0.00,,,0.00,0.000000,,2013-03-15 10:23:00,
2013-03-15 00:32:00,61.0,61.0,-100.00,ESE,122,0.0,3.0,99,0.00,,,0.00,0.000000,,2013-03-15 10:32:00,
2013-03-15 01:02:00,60.0,60.0,-100.00,SE,124,1.0,4.0,99,0.00,,,0.00,0.000000,,2013-03-15 11:02:00,
2013-03-15 01:12:00,60.0,60.0,-100.00,SE,124,1.0,4.0,99,0.00,,,0.00,0.000000,,2013-03-15 11:12:00,
2013-03-15 01:22:00,60.0,60.0,-100.00,SE,124,1.0,4.0,99,0.00,,,0.00,0.000000,,2013-03-15 11:22:00,
2013-03-15 01:32:00,60.0,60.0,-100.00,SE,124,1.0,4.0,99,0.00,,,0.00,0.000000,,2013-03-15 11:32:00,
2013-03-15 02:02:00,61.0,61.0,-100.00,SE,129,2.0,4.0,99,0.00,,,0.00,0.000000,,2013-03-15 12:02:00,
2013-03-15 02:12:00,61.0,61.0,-100.00,SE,129,2.0,4.0,99,0.00,,,0.00,0.000000,,2013-03-15 12:12:00,
2013-03-15 02:22:00,61.0,61.0,-100.00,SE,129,2.0,4.0,99,0.00,,,0.00,0.000000,,2013-03-15 12:22:00,
2013-03-15 02:32:00,61.0,61.0,-100.00,SE,129,2.0,4.0,99,0.00,,,0.00,0.000000,,2013-03-15 12:32:00,
2013-03-15 03:02:00,58.0,58.0,-100.00,ESE,114,2.0,6.0,99,0.00,,,0.00,0.000000,,2013-03-15 13:02:00,
2013-03-15 03:12:00,58.0,58.0,-100.00,ESE,114,2.0,6.0,99,0.00,,,0.00,0.000000,,2013-03-15 13:12:00,
2013-03-15 03:22:00,58.0,58.0,-100.00,ESE,114,2.0,6.0,99,0.00,,,0.00,0.000000,,2013-03-15 13:22:00,
2013-03-15 03:32:00,58.0,58.0,-100.00,ESE,114,2.0,6.0,99,0.00,,,0.00,0.000000,,2013-03-15 13:32:00,
2013-03-15 04:02:00,60.0,60.0,-100.00,ESE,119,0.0,4.0,99,0.00,,,0.00,0.000000,,2013-03-15 14:02:00,
2013-03-15 04:12:00,60.0,60.0,-100.00,ESE,119,0.0,4.0,99,0.00,,,0.00,0.000000,,2013-03-15 14:12:00,
2013-03-15 04:22:00,60.0,60.0,-100.00,ESE,119,0.0,4.0,99,0.00,,,0.00,0.000000,,2013-03-15 14:22:00,
2013-03-15 04:32:00,60.0,60.0,-100.00,ESE,119,0.0,4.0,99,0.00,,,0.00,0.000000,,2013-03-15 14:32:00,
2013-03-15 05:02:00,61.0,61.0,-100.00,ENE,71,0.0,5.0,99,0.00,,,0.00,0.000000,,2013-03-15 15:02:00,
2013-03-15 05:12:00,61.0,61.0,-100.00,ENE,71,0.0,5.0,99,0.00,,,0.00,0.000000,,2013-03-15 15:12:00,
2013-03-15 05:22:00,61.0,61.0,-100.00,ENE,71,0.0,5.0,99,0.00,,,0.00,0.000000,,2013-03-15 15:22:00,
2013-03-15 05:32:00,61.0,61.0,-100.00,ENE,71,0.0,5.0,99,0.00,,,0.00,0.000000,,2013-03-15 15:32:00,
2013-03-15 06:02:00,61.0,61.0,-100.00,ESE,108,3.0,5.0,99,0.00,,,0.00,0.000000,,2013-03-15 16:02:00,
2013-03-15 06:12:00,61.0,61.0,-100.00,ESE,108,3.0,5.0,99,0.00,,,0.00,0.000000,,2013-03-15 16:12:00,
2013-03-15 06:22:00,61.0,61.0,-100.00,ESE,108,3.0,5.0,99,0.00,,,0.00,0.000000,,2013-03-15 16:22:00,
2013-03-15 06:32:00,61.0,61.0,-100.00,ESE,108,3.0,5.0,99,0.00,,,0.00,0.000000,,2013-03-15 16:32:00,
2013-03-15 07:02:00,61.0,61.0,-100.00,NNE,18,2.0,5.0,99,0.00,,,0.00,0.000000,,2013-03-15 17:02:00,
2013-03-15 07:12:00,61.0,61.0,-100.00,NNE,18,2.0,5.0,99,0.00,,,0.00,0.000000,,2013-03-15 17:12:00,
2013-03-15 07:22:00,61.0,61.0,-100.00,NNE,18,2.0,5.0,99,0.00,,,0.00,0.000000,,2013-03-15 17:22:00,
2013-03-15 07:32:00,61.0,61.0,-100.00,NNE,18,2.0,5.0,99,0.00,,,0.00,0.000000,,2013-03-15 17:32:00,
2013-03-15 08:02:00,62.0,62.0,-100.00,ESE,119,0.0,6.0,99,0.00,,,0.00,19.000000,,2013-03-15 18:02:00,
2013-03-15 08:12:00,62.0,62.0,-100.00,ESE,119,0.0,6.0,99,0.00,,,0.00,19.000000,,2013-03-15 18:12:00,
2013-03-15 08:22:00,62.0,62.0,-100.00,ESE,119,0.0,6.0,99,0.00,,,0.00,19.000000,,2013-03-15 18:22:00,
2013-03-15 08:32:00,62.0,62.0,-100.00,ESE,119,0.0,6.0,99,0.00,,,0.00,19.000000,,2013-03-15 18:32:00,
2013-03-15 09:02:00,67.0,67.0,-100.00,North,354,4.0,6.0,99,0.00,,,0.00,253.000000,,2013-03-15 19:02:00,
2013-03-15 09:12:00,67.0,67.0,-100.00,North,354,4.0,6.0,99,0.00,,,0.00,253.000000,,2013-03-15 19:12:00,
2013-03-15 09:22:00,67.0,67.0,-100.00,North,354,4.0,6.0,99,0.00,,,0.00,253.000000,,2013-03-15 19:22:00,
2013-03-15 09:31:00,67.0,67.0,-100.00,North,354,4.0,6.0,99,0.00,,,0.00,253.000000,,2013-03-15 19:31:00,
2013-03-15 10:02:00,67.0,57.0,-100.00,West,272,7.0,12.0,70,0.00,,,-99.99,544.000000,,2013-03-15 20:02:00,
2013-03-15 10:12:00,67.0,57.0,-100.00,West,272,7.0,12.0,70,0.00,,,-99.99,544.000000,,2013-03-15 20:12:00,
2013-03-15 10:22:00,67.0,57.0,-100.00,West,272,7.0,12.0,70,0.00,,,-99.99,544.000000,,2013-03-15 20:22:00,
2013-03-15 10:31:00,67.0,57.0,-100.00,West,272,7.0,12.0,70,0.00,,,-99.99,544.000000,,2013-03-15 20:31:00,
2013-03-15 11:02:00,68.0,59.0,-100.00,WNW,285,6.0,14.0,73,0.00,,,0.00,481.000000,,2013-03-15 21:02:00,
2013-03-15 11:12:00,68.0,59.0,-100.00,WNW,285,6.0,14.0,73,0.00,,,0.00,481.000000,,2013-03-15 21:12:00,
2013-03-15 11:22:00,68.0,59.0,-100.00,WNW,285,6.0,14.0,73,0.00,,,0.00,481.000000,,2013-03-15 21:22:00,
2013-03-15 11:32:00,68.0,59.0,-100.00,WNW,285,6.0,14.0,73,0.00,,,0.00,481.000000,,2013-03-15 21:32:00,
2013-03-15 12:03:00,65.0,59.0,-100.00,NW,308,10.0,16.0,81,0.00,,,0.00,222.000000,,2013-03-15 22:03:00,
2013-03-15 12:13:00,65.0,59.0,-100.00,NW,308,10.0,16.0,81,0.00,,,0.00,222.000000,,2013-03-15 22:13:00,
2013-03-15 12:22:00,65.0,59.0,-100.00,NW,308,10.0,16.0,81,0.00,,,0.00,222.000000,,2013-03-15 22:22:00,
2013-03-15 12:32:00,65.0,59.0,-100.00,NW,308,10.0,16.0,81,0.00,,,0.00,222.000000,,2013-03-15 22:32:00,
2013-03-15 13:02:00,67.0,65.0,-100.00,NNW,329,4.0,14.0,93,0.00,,,0.00,399.000000,,2013-03-15 23:02:00,
2013-03-15 13:12:00,67.0,65.0,-100.00,NNW,329,4.0,14.0,93,0.00,,,0.00,399.000000,,2013-03-15 23:12:00,
2013-03-15 13:22:00,67.0,65.0,-100.00,NNW,329,4.0,14.0,93,0.00,,,0.00,399.000000,,2013-03-15 23:22:00,
2013-03-15 13:32:00,67.0,65.0,-100.00,NNW,329,4.0,14.0,93,0.00,,,0.00,399.000000,,2013-03-15 23:32:00,
2013-03-15 14:02:00,63.0,63.0,-100.00,NW,313,6.0,12.0,99,0.00,,,0.00,124.000000,,2013-03-16 00:02:00,
2013-03-15 14:12:00,63.0,63.0,-100.00,NW,313,6.0,12.0,99,0.00,,,0.00,124.000000,,2013-03-16 00:12:00,
2013-03-15 14:22:00,63.0,63.0,-100.00,NW,313,6.0,12.0,99,0.00,,,0.00,124.000000,,2013-03-16 00:22:00,
2013-03-15 14:32:00,63.0,63.0,-100.00,NW,313,6.0,12.0,99,0.00,,,0.00,124.000000,,2013-03-16 00:32:00,
2013-03-15 15:02:00,61.0,61.0,-100.00,NW,305,6.0,16.0,100,0.02,,,0.02,77.000000,,2013-03-16 01:02:00,
2013-03-15 15:12:00,61.0,61.0,-100.00,NW,305,6.0,16.0,100,0.02,,,0.02,77.000000,,2013-03-16 01:12:00,
2013-03-15 15:21:00,61.0,61.0,-100.00,NW,305,6.0,16.0,100,0.02,,,0.02,77.000000,,2013-03-16 01:21:00,
2013-03-15 15:32:00,61.0,61.0,-100.00,NW,305,6.0,16.0,100,0.02,,,0.02,77.000000,,2013-03-16 01:32:00,
2013-03-15 16:02:00,63.0,63.0,-100.00,WNW,291,6.0,12.0,100,0.00,,,0.02,112.000000,,2013-03-16 02:02:00,
2013-03-15 16:12:00,63.0,63.0,-100.00,WNW,291,6.0,12.0,100,0.00,,,0.02,112.000000,,2013-03-16 02:12:00,
2013-03-15 16:22:00,63.0,63.0,-100.00,WNW,291,6.0,12.0,100,0.00,,,0.02,112.000000,,2013-03-16 02:22:00,
2013-03-15 16:32:00,63.0,63.0,-100.00,WNW,291,6.0,12.0,100,0.00,,,0.02,112.000000,,2013-03-16 02:32:00,
2013-03-15 17:02:00,61.0,61.0,-100.00,WNW,298,6.0,12.0,100,0.00,,,0.02,92.000000,,2013-03-16 03:02:00,
2013-03-15 17:12:00,61.0,61.0,-100.00,WNW,298,6.0,12.0,100,0.00,,,0.02,92.000000,,2013-03-16 03:12:00,
2013-03-15 17:21:00,61.0,61.0,-100.00,WNW,298,6.0,12.0,100,0.00,,,0.02,92.000000,,2013-03-16 03:21:00,
2013-03-15 17:32:00,61.0,61.0,-100.00,WNW,298,6.0,12.0,100,0.00,,,0.02,92.000000,,2013-03-16 03:32:00,
2013-03-15 18:02:00,61.0,61.0,-100.00,NW,307,5.0,10.0,100,0.00,,,0.02,40.000000,,2013-03-16 04:02:00,
2013-03-15 18:12:00,61.0,61.0,-100.00,NW,307,5.0,10.0,100,0.00,,,0.02,40.000000,,2013-03-16 04:12:00,
2013-03-15 18:22:00,61.0,61.0,-100.00,NW,307,5.0,10.0,100,0.00,,,0.02,40.000000,,2013-03-16 04:22:00,
2013-03-15 18:32:00,61.0,61.0,-100.00,NW,307,5.0,10.0,100,0.00,,,0.02,40.000000,,2013-03-16 04:32:00,
2013-03-15 19:02:00,60.0,60.0,-100.00,WNW,301,6.0,12.0,99,0.01,,,0.03,10.000000,,2013-03-16 05:02:00,
2013-03-15 19:12:00,60.0,60.0,-100.00,WNW,301,6.0,12.0,99,0.01,,,0.03,10.000000,,2013-03-16 05:12:00,
2013-03-15 19:21:00,60.0,60.0,-100.00,WNW,301,6.0,12.0,99,0.01,,,0.03,10.000000,,2013-03-16 05:21:00,
2013-03-15 19:32:00,60.0,60.0,-100.00,WNW,301,6.0,12.0,99,0.01,,,0.03,10.000000,,2013-03-16 05:32:00,
2013-03-15 20:02:00,60.0,60.0,-100.00,West,279,4.0,9.0,99,0.01,,,0.04,0.000000,,2013-03-16 06:02:00,
2013-03-15 20:12:00,60.0,60.0,-100.00,West,279,4.0,9.0,99,0.01,,,0.04,0.000000,,2013-03-16 06:12:00,
2013-03-15 20:21:00,60.0,60.0,-100.00,West,279,4.0,9.0,99,0.01,,,0.04,0.000000,,2013-03-16 06:21:00,
2013-03-15 20:32:00,60.0,60.0,-100.00,West,279,4.0,9.0,99,0.01,,,0.04,0.000000,,2013-03-16 06:32:00,
2013-03-15 21:02:00,61.0,61.0,-100.00,West,277,1.0,9.0,99,0.00,,,0.04,0.000000,,2013-03-16 07:02:00,
2013-03-15 21:12:00,61.0,61.0,-100.00,West,277,1.0,9.0,99,0.00,,,0.04,0.000000,,2013-03-16 07:12:00,
2013-03-15 21:22:00,61.0,61.0,-100.00,West,277,1.0,9.0,99,0.00,,,0.04,0.000000,,2013-03-16 07:22:00,
2013-03-15 21:32:00,61.0,61.0,-100.00,West,277,1.0,9.0,99,0.00,,,0.04,0.000000,,2013-03-16 07:32:00,
2013-03-15 22:02:00,61.0,61.0,-100.00,West,268,1.0,6.0,99,0.00,,,0.04,0.000000,,2013-03-16 08:02:00,
2013-03-15 22:12:00,61.0,61.0,-100.00,West,268,1.0,6.0,99,0.00,,,0.04,0.000000,,2013-03-16 08:12:00,
2013-03-15 22:22:00,61.0,61.0,-100.00,West,268,1.0,6.0,99,0.00,,,0.04,0.000000,,2013-03-16 08:22:00,
2013-03-15 22:32:00,61.0,61.0,-100.00,West,268,1.0,6.0,99,0.00,,,0.04,0.000000,,2013-03-16 08:32:00,
2013-03-15 23:01:00,59.0,59.0,-100.00,West,276,0.0,9.0,99,0.00,,,0.04,0.000000,,2013-03-16 09:01:00,
2013-03-15 23:12:00,59.0,59.0,-100.00,West,276,0.0,9.0,99,0.00,,,0.04,0.000000,,2013-03-16 09:12:00,
2013-03-15 23:22:00,59.0,59.0,-100.00,West,276,0.0,9.0,99,0.00,,,0.04,0.000000,,2013-03-16 09:22:00,
2013-03-15 23:32:00,59.0,59.0,-100.00,West,276,0.0,9.0,99,0.00,,,0.04,0.000000,,2013-03-16 09:32:00,